Time,TemperatureF,DewpointF,PressureIn,WindDirection,WindDirectionDegrees,WindSpeedMPH,WindSpeedGustMPH,Humidity,HourlyPrecipIn,Conditions,Clouds,dailyrainin,SoftwareType,DateUTC
2013-05-02 00:02:00,69.2,57.0,30.15,NW,326,0.0,0.0,65,0.00,,,0.00,weatherlink.com 1.10,2013-05-02 04:02:00,
2013-05-02 00:17:00,68.1,57.0,30.16,NW,325,0.0,0.0,67,0.00,,,0.00,weatherlink.com 1.10,2013-05-02 04:17:00,
2013-05-02 00:32:00,68.9,57.0,30.16,ESE,116,0.0,2.0,65,0.00,,,0.00,weatherlink.com 1.10,2013-05-02 04:32:00,
2013-05-02 00:47:00,68.4,57.0,30.16,SSE,163,0.0,0.0,66,0.00,,,0.00,weatherlink.com 1.10,2013-05-02 04:47:00,
2013-05-02 01:02:00,69.2,55.0,30.16,ESE,122,0.0,1.0,62,0.00,,,0.00,weatherlink.com 1.10,2013-05-02 05:02:00,
2013-05-02 01:17:00,68.7,55.0,30.16,ESE,122,0.0,1.0,62,0.00,,,0.00,weatherlink.com 1.10,2013-05-02 05:17:00,
2013-05-02 01:32:00,68.6,55.0,30.16,ESE,103,0.0,3.0,62,0.00,,,0.00,weatherlink.com 1.10,2013-05-02 05:32:00,
2013-05-02 01:48:00,68.8,55.0,30.16,SE,129,0.0,3.0,61,0.00,,,0.00,weatherlink.com 1.10,2013-05-02 05:48:00,
2013-05-02 02:03:00,67.8,55.0,30.16,SE,130,0.0,1.0,63,0.00,,,0.00,weatherlink.com 1.10,2013-05-02 06:03:00,
2013-05-02 02:18:00,66.4,54.0,30.16,SSE,153,0.0,0.0,65,0.00,,,0.00,weatherlink.com 1.10,2013-05-02 06:18:00,
2013-05-02 02:33:00,66.0,54.0,30.16,SSE,153,0.0,0.0,65,0.00,,,0.00,weatherlink.com 1.10,2013-05-02 06:33:00,
2013-05-02 02:48:00,65.7,54.0,30.16,SSE,149,0.0,3.0,65,0.00,,,0.00,weatherlink.com 1.10,2013-05-02 06:48:00,
2013-05-02 03:03:00,66.3,54.0,30.16,SE,132,0.0,2.0,64,0.00,,,0.00,weatherlink.com 1.10,2013-05-02 07:03:00,
2013-05-02 03:18:00,66.7,54.0,30.16,SE,124,0.0,5.0,63,0.00,,,0.00,weatherlink.com 1.10,2013-05-02 07:18:00,
2013-05-02 03:33:00,66.4,54.0,30.16,ESE,106,1.0,2.0,64,0.00,,,0.00,weatherlink.com 1.10,2013-05-02 07:33:00,
2013-05-02 03:48:00,66.1,53.0,30.16,ESE,115,1.0,2.0,64,0.00,,,0.00,weatherlink.com 1.10,2013-05-02 07:48:00,
2013-05-02 04:03:00,65.1,54.0,30.16,ESE,114,0.0,0.0,67,0.00,,,0.00,weatherlink.com 1.10,2013-05-02 08:03:00,
2013-05-02 04:18:00,64.2,53.0,30.16,ESE,114,0.0,0.0,68,0.00,,,0.00,weatherlink.com 1.10,2013-05-02 08:18:00,
2013-05-02 04:33:00,63.8,53.0,30.16,SE,130,0.0,0.0,69,0.00,,,0.00,weatherlink.com 1.10,2013-05-02 08:33:00,
2013-05-02 04:48:00,63.1,53.0,30.17,SE,128,1.0,2.0,70,0.00,,,0.00,weatherlink.com 1.10,2013-05-02 08:48:00,
2013-05-02 05:03:00,63.9,53.0,30.17,SE,129,0.0,2.0,68,0.00,,,0.00,weatherlink.com 1.10,2013-05-02 09:03:00,
2013-05-02 05:18:00,63.9,53.0,30.17,SE,135,1.0,3.0,67,0.00,,,0.00,weatherlink.com 1.10,2013-05-02 09:18:00,
2013-05-02 05:33:00,63.1,53.0,30.17,SE,134,0.0,0.0,69,0.00,,,0.00,weatherlink.com 1.10,2013-05-02 09:33:00,
2013-05-02 05:48:00,61.9,52.0,30.17,SE,146,0.0,1.0,71,0.00,,,0.00,weatherlink.com 1.10,2013-05-02 09:48:00,
2013-05-02 06:03:00,61.1,52.0,30.17,SE,146,0.0,0.0,73,0.00,,,0.00,weatherlink.com 1.10,2013-05-02 10:03:00,
2013-05-02 06:18:00,60.4,52.0,30.17,SE,146,0.0,0.0,75,0.00,,,0.00,weatherlink.com 1.10,2013-05-02 10:18:00,
2013-05-02 06:33:00,60.4,52.0,30.18,SE,132,0.0,0.0,75,0.00,,,0.00,weatherlink.com 1.10,2013-05-02 10:33:00,
2013-05-02 06:48:00,61.0,53.0,30.18,ESE,122,0.0,1.0,74,0.00,,,0.00,weatherlink.com 1.10,2013-05-02 10:48:00,
2013-05-02 07:03:00,60.8,52.0,30.18,East,81,0.0,0.0,74,0.00,,,0.00,weatherlink.com 1.10,2013-05-02 11:03:00,
2013-05-02 07:18:00,61.1,53.0,30.19,SSE,165,0.0,0.0,74,0.00,,,0.00,weatherlink.com 1.10,2013-05-02 11:18:00,
2013-05-02 07:33:00,61.1,53.0,30.19,SSE,167,0.0,0.0,74,0.00,,,0.00,weatherlink.com 1.10,2013-05-02 11:33:00,
2013-05-02 07:48:00,61.1,53.0,30.19,South,186,0.0,0.0,75,0.00,,,0.00,weatherlink.com 1.10,2013-05-02 11:48:00,
2013-05-02 08:03:00,62.1,53.0,30.20,SE,135,0.0,1.0,73,0.00,,,0.00,weatherlink.com 1.10,2013-05-02 12:03:00,
2013-05-02 08:18:00,63.4,53.0,30.21,ESE,117,0.0,0.0,70,0.00,,,0.00,weatherlink.com 1.10,2013-05-02 12:18:00,
2013-05-02 08:33:00,63.9,53.0,30.21,East,97,1.0,4.0,68,0.00,,,0.00,weatherlink.com 1.10,2013-05-02 12:33:00,
2013-05-02 08:48:00,64.9,54.0,30.21,East,100,2.0,4.0,67,0.00,,,0.00,weatherlink.com 1.10,2013-05-02 12:48:00,
2013-05-02 09:03:00,66.1,53.0,30.21,SSE,167,2.0,5.0,64,0.00,,,0.00,weatherlink.com 1.10,2013-05-02 13:03:00,
2013-05-02 09:18:00,67.3,54.0,30.21,ENE,78,7.0,9.0,63,0.00,,,0.00,weatherlink.com 1.10,2013-05-02 13:18:00,
2013-05-02 09:33:00,67.6,54.0,30.21,SE,136,4.0,8.0,62,0.00,,,0.00,weatherlink.com 1.10,2013-05-02 13:33:00,
2013-05-02 09:48:00,67.8,53.0,30.21,South,190,2.0,9.0,60,0.00,,,0.00,weatherlink.com 1.10,2013-05-02 13:48:00,
2013-05-02 10:03:00,68.3,55.0,30.21,SE,127,1.0,9.0,62,0.00,,,0.00,weatherlink.com 1.10,2013-05-02 14:03:00,
2013-05-02 10:18:00,69.3,55.0,30.21,ESE,110,4.0,6.0,60,0.00,,,0.00,weatherlink.com 1.10,2013-05-02 14:18:00,
2013-05-02 10:33:00,69.8,55.0,30.21,SSE,159,2.0,7.0,59,0.00,,,0.00,weatherlink.com 1.10,2013-05-02 14:33:00,
2013-05-02 10:48:00,69.7,55.0,30.21,ESE,107,2.0,7.0,59,0.00,,,0.00,weatherlink.com 1.10,2013-05-02 14:48:00,
2013-05-02 11:03:00,70.1,55.0,30.20,WNW,288,1.0,7.0,59,0.00,,,0.00,weatherlink.com 1.10,2013-05-02 15:03:00,
2013-05-02 11:18:00,70.5,55.0,30.20,SSE,153,2.0,5.0,59,0.00,,,0.00,weatherlink.com 1.10,2013-05-02 15:18:00,
2013-05-02 11:34:00,71.9,55.0,30.20,NNW,338,3.0,5.0,56,0.00,,,0.00,weatherlink.com 1.10,2013-05-02 15:34:00,
2013-05-02 11:49:00,72.9,55.0,30.20,WSW,253,3.0,6.0,54,0.00,,,0.00,weatherlink.com 1.10,2013-05-02 15:49:00,
2013-05-02 12:04:00,73.0,55.0,30.19,WSW,242,2.0,4.0,54,0.00,,,0.00,weatherlink.com 1.10,2013-05-02 16:04:00,
2013-05-02 12:19:00,74.2,56.0,30.18,East,101,1.0,8.0,53,0.00,,,0.00,weatherlink.com 1.10,2013-05-02 16:19:00,
2013-05-02 12:34:00,73.7,55.0,30.18,SSE,159,0.0,4.0,53,0.00,,,0.00,weatherlink.com 1.10,2013-05-02 16:34:00,
2013-05-02 12:49:00,73.8,56.0,30.18,SW,231,3.0,6.0,54,0.00,,,0.00,weatherlink.com 1.10,2013-05-02 16:49:00,
2013-05-02 13:04:00,74.2,56.0,30.18,SSE,153,4.0,5.0,53,0.00,,,0.00,weatherlink.com 1.10,2013-05-02 17:04:00,
2013-05-02 13:19:00,74.5,56.0,30.17,South,181,1.0,5.0,52,0.00,,,0.00,weatherlink.com 1.10,2013-05-02 17:19:00,
2013-05-02 13:34:00,74.5,56.0,30.17,SE,134,3.0,7.0,52,0.00,,,0.00,weatherlink.com 1.10,2013-05-02 17:34:00,
2013-05-02 13:49:00,74.5,56.0,30.16,ESE,110,2.0,5.0,53,0.00,,,0.00,weatherlink.com 1.10,2013-05-02 17:49:00,
2013-05-02 14:04:00,74.0,56.0,30.16,SE,138,3.0,11.0,53,0.00,,,0.00,weatherlink.com 1.10,2013-05-02 18:04:00,
2013-05-02 14:19:00,73.5,55.0,30.16,ESE,113,4.0,6.0,53,0.00,,,0.00,weatherlink.com 1.10,2013-05-02 18:19:00,
2013-05-02 14:34:00,73.2,55.0,30.16,ESE,120,1.0,8.0,54,0.00,,,0.00,weatherlink.com 1.10,2013-05-02 18:34:00,
2013-05-02 14:49:00,74.0,56.0,30.16,ESE,118,2.0,9.0,54,0.00,,,0.00,weatherlink.com 1.10,2013-05-02 18:49:00,
2013-05-02 15:04:00,74.8,56.0,30.16,South,188,2.0,7.0,52,0.00,,,0.00,weatherlink.com 1.10,2013-05-02 19:04:00,
2013-05-02 15:19:00,75.2,56.0,30.15,SE,139,2.0,5.0,52,0.00,,,0.00,weatherlink.com 1.10,2013-05-02 19:19:00,
2013-05-02 15:34:00,75.1,56.0,30.15,NE,49,3.0,6.0,51,0.00,,,0.00,weatherlink.com 1.10,2013-05-02 19:34:00,
2013-05-02 15:49:00,74.7,55.0,30.14,SE,133,2.0,9.0,51,0.00,,,0.00,weatherlink.com 1.10,2013-05-02 19:49:00,
2013-05-02 16:04:00,75.6,56.0,30.14,East,91,0.0,7.0,51,0.00,,,0.00,weatherlink.com 1.10,2013-05-02 20:04:00,
2013-05-02 16:19:00,76.5,56.0,30.13,SW,226,0.0,5.0,50,0.00,,,0.00,weatherlink.com 1.10,2013-05-02 20:19:00,
2013-05-02 16:34:00,76.0,57.0,30.12,SSE,150,2.0,5.0,52,0.00,,,0.00,weatherlink.com 1.10,2013-05-02 20:34:00,
2013-05-02 16:49:00,75.3,57.0,30.12,SE,142,2.0,8.0,53,0.00,,,0.00,weatherlink.com 1.10,2013-05-02 20:49:00,
2013-05-02 17:04:00,75.9,57.0,30.11,SE,146,4.0,6.0,52,0.00,,,0.00,weatherlink.com 1.10,2013-05-02 21:04:00,
2013-05-02 17:19:00,75.8,56.0,30.11,SE,130,5.0,6.0,51,0.00,,,0.00,weatherlink.com 1.10,2013-05-02 21:19:00,
2013-05-02 17:34:00,76.2,57.0,30.11,SSW,205,1.0,4.0,52,0.00,,,0.00,weatherlink.com 1.10,2013-05-02 21:34:00,
2013-05-02 17:49:00,76.1,57.0,30.11,SE,127,3.0,6.0,52,0.00,,,0.00,weatherlink.com 1.10,2013-05-02 21:49:00,
2013-05-02 18:04:00,76.9,57.0,30.11,SE,138,3.0,6.0,51,0.00,,,0.00,weatherlink.com 1.10,2013-05-02 22:04:00,
2013-05-02 18:19:00,76.2,57.0,30.10,SE,136,4.0,6.0,52,0.00,,,0.00,weatherlink.com 1.10,2013-05-02 22:19:00,
2013-05-02 18:34:00,74.7,56.0,30.09,SE,130,3.0,7.0,53,0.00,,,0.00,weatherlink.com 1.10,2013-05-02 22:34:00,
2013-05-02 18:49:00,74.2,56.0,30.09,SE,146,6.0,8.0,54,0.00,,,0.00,weatherlink.com 1.10,2013-05-02 22:49:00,
2013-05-02 19:04:00,74.2,56.0,30.09,SE,141,5.0,8.0,53,0.00,,,0.00,weatherlink.com 1.10,2013-05-02 23:04:00,
2013-05-02 19:19:00,74.0,56.0,30.09,SSE,157,7.0,8.0,53,0.00,,,0.00,weatherlink.com 1.10,2013-05-02 23:19:00,
2013-05-02 19:34:00,73.8,55.0,30.09,SE,145,0.0,10.0,52,0.00,,,0.00,weatherlink.com 1.10,2013-05-02 23:34:00,
2013-05-02 19:49:00,73.3,55.0,30.09,SSE,149,1.0,4.0,53,0.00,,,0.00,weatherlink.com 1.10,2013-05-02 23:49:00,
2013-05-02 20:04:00,73.0,55.0,30.09,SE,141,0.0,4.0,54,0.00,,,0.00,weatherlink.com 1.10,2013-05-03 00:04:00,
2013-05-02 20:19:00,72.5,55.0,30.09,SE,137,2.0,4.0,54,0.00,,,0.00,weatherlink.com 1.10,2013-05-03 00:19:00,
2013-05-02 20:34:00,71.7,56.0,30.09,SE,146,0.0,1.0,59,0.00,,,0.00,weatherlink.com 1.10,2013-05-03 00:34:00,
2013-05-02 20:49:00,69.9,56.0,30.09,SE,145,0.0,0.0,62,0.00,,,0.00,weatherlink.com 1.10,2013-05-03 00:49:00,
2013-05-02 21:04:00,68.7,56.0,30.10,SE,144,0.0,0.0,64,0.00,,,0.00,weatherlink.com 1.10,2013-05-03 01:04:00,
2013-05-02 21:19:00,68.5,56.0,30.10,SE,143,0.0,0.0,64,0.00,,,0.00,weatherlink.com 1.10,2013-05-03 01:19:00,
2013-05-02 21:34:00,69.4,56.0,30.10,SE,130,0.0,1.0,63,0.00,,,0.00,weatherlink.com 1.10,2013-05-03 01:34:00,
2013-05-02 21:49:00,68.6,56.0,30.10,SE,129,0.0,0.0,65,0.00,,,0.00,weatherlink.com 1.10,2013-05-03 01:49:00,
2013-05-02 22:04:00,67.1,57.0,30.10,ESE,103,0.0,0.0,69,0.00,,,0.00,weatherlink.com 1.10,2013-05-03 02:04:00,
2013-05-02 22:19:00,66.2,57.0,30.10,NNW,345,0.0,0.0,71,0.00,,,0.00,weatherlink.com 1.10,2013-05-03 02:19:00,
2013-05-02 22:34:00,65.6,57.0,30.10,NNW,345,0.0,0.0,73,0.00,,,0.00,weatherlink.com 1.10,2013-05-03 02:34:00,
2013-05-02 22:49:00,65.2,56.0,30.10,NW,326,0.0,0.0,73,0.00,,,0.00,weatherlink.com 1.10,2013-05-03 02:49:00,
2013-05-02 23:04:00,64.6,57.0,30.09,NW,326,0.0,0.0,75,0.00,,,0.00,weatherlink.com 1.10,2013-05-03 03:04:00,
2013-05-02 23:19:00,64.5,57.0,30.10,NNW,329,0.0,0.0,76,0.00,,,0.00,weatherlink.com 1.10,2013-05-03 03:19:00,
2013-05-02 23:34:00,64.4,57.0,30.09,NNW,340,0.0,0.0,76,0.00,,,0.00,weatherlink.com 1.10,2013-05-03 03:34:00,
2013-05-02 23:49:00,64.4,57.0,30.09,NNW,340,0.0,0.0,76,0.00,,,0.00,weatherlink.com 1.10,2013-05-03 03:49:00,